Peabody, Massachusetts
Current Conditions -  °F | °C
As of 8:24 AM on Monday 22 Dec 2014 (Local Time) from KBVY Reporting Station
Overcast Overcast  
Wind Chill: 26°   Ceiling: 900
Heat Index: 33°   Visibility: 10mi
Dew Point: 27°   Wind: 8mph
Humidity: 78%   Direction: 10°N
Pressure: 30.38"   Gusts: NA
Location:  42.53°N, 70.93°W
Report Text: KBVY 221324Z 01007KT 10SM BKN009 OVC050 01/M03 A3038 RMK AO2 T00061028
Loading
Personal Weather Stations






























Interactive Weather Map New forecast layout! Learn more

10-Day Weather Forecast

Advertisements
Track Severe Weather on mobile